createdAt,value
2022-08-30T00:03:01.004Z,15.85
2022-08-30T00:06:05.886Z,15.83
2022-08-30T00:09:07.528Z,15.80
2022-08-30T00:12:09.592Z,15.75
2022-08-30T00:15:13.460Z,15.74
2022-08-30T00:18:18.131Z,15.73
2022-08-30T00:21:21.057Z,15.67
2022-08-30T00:24:22.732Z,15.66
2022-08-30T00:27:24.392Z,15.63
2022-08-30T00:30:26.312Z,15.59
2022-08-30T00:33:29.210Z,15.57
2022-08-30T00:36:31.349Z,15.54
2022-08-30T00:39:32.955Z,15.49
2022-08-30T00:42:34.697Z,15.48
2022-08-30T00:45:38.326Z,15.46
2022-08-30T00:48:45.048Z,15.43
2022-08-30T00:51:46.813Z,15.40
2022-08-30T00:54:50.811Z,15.39
2022-08-30T00:57:58.097Z,15.38
2022-08-30T01:01:01.480Z,15.35
2022-08-30T01:04:05.903Z,15.32
2022-08-30T01:07:08.311Z,15.34
2022-08-30T01:10:13.679Z,15.32
2022-08-30T01:13:15.760Z,15.32
2022-08-30T01:16:18.427Z,15.32
2022-08-30T01:19:46.003Z,15.31
2022-08-30T01:22:50.689Z,15.28
2022-08-30T01:25:54.188Z,15.27
2022-08-30T01:29:00.351Z,15.28
2022-08-30T01:32:02.388Z,15.28
2022-08-30T01:35:04.141Z,15.25
2022-08-30T01:38:06.127Z,15.26
2022-08-30T01:41:09.748Z,15.23
2022-08-30T01:44:13.268Z,15.22
2022-08-30T01:47:18.209Z,15.20
2022-08-30T01:50:20.225Z,15.19
2022-08-30T01:53:21.874Z,15.17
2022-08-30T01:56:24.859Z,15.17
2022-08-30T01:59:27.059Z,15.15
2022-08-30T02:02:29.931Z,15.14
2022-08-30T02:05:31.946Z,15.14
2022-08-30T02:08:34.643Z,15.11
2022-08-30T02:11:36.319Z,15.08
2022-08-30T02:14:38.548Z,15.04
2022-08-30T02:17:42.376Z,15.03
2022-08-30T02:20:43.987Z,14.98
2022-08-30T02:23:46.184Z,14.97
2022-08-30T02:26:48.654Z,14.94
2022-08-30T02:29:50.323Z,14.91
2022-08-30T02:32:52.389Z,14.87
2022-08-30T02:35:54.380Z,14.87
2022-08-30T02:38:56.143Z,14.85
2022-08-30T02:41:57.884Z,14.82
2022-08-30T02:45:00.461Z,14.83
2022-08-30T02:48:02.206Z,14.80
2022-08-30T02:51:11.721Z,14.78
2022-08-30T02:54:19.655Z,14.77
2022-08-30T02:57:21.291Z,14.72
2022-08-30T03:00:23.120Z,14.71
2022-08-30T03:03:24.906Z,14.70
2022-08-30T03:06:26.652Z,14.63
2022-08-30T03:09:28.372Z,14.68
2022-08-30T03:12:30.006Z,14.67
2022-08-30T03:15:32.641Z,14.63
2022-08-30T03:18:34.325Z,14.62
2022-08-30T03:21:37.032Z,14.58
2022-08-30T03:24:40.501Z,14.56
2022-08-30T03:27:42.294Z,14.54
2022-08-30T03:30:43.902Z,14.54
2022-08-30T03:33:45.548Z,14.52
2022-08-30T03:36:48.501Z,14.50
2022-08-30T03:39:50.162Z,14.48
2022-08-30T03:42:51.872Z,14.49
2022-08-30T03:45:54.540Z,14.50
2022-08-30T03:48:56.288Z,14.47
2022-08-30T03:51:58.146Z,14.44
2022-08-30T03:55:01.156Z,14.44
2022-08-30T03:58:02.859Z,14.44
2022-08-30T04:01:04.555Z,14.43
2022-08-30T04:04:06.257Z,14.43
2022-08-30T04:07:07.960Z,14.40
2022-08-30T04:10:10.669Z,14.38
2022-08-30T04:13:12.510Z,14.37
2022-08-30T04:16:14.263Z,14.37
2022-08-30T04:19:15.898Z,14.35
2022-08-30T04:22:17.573Z,14.35
2022-08-30T04:25:19.476Z,14.33
2022-08-30T04:28:22.609Z,14.30
2022-08-30T04:31:24.325Z,14.26
2022-08-30T04:34:26.048Z,14.25
2022-08-30T04:37:27.808Z,14.23
2022-08-30T04:40:29.770Z,14.20
2022-08-30T04:43:31.399Z,14.18
2022-08-30T04:46:36.849Z,14.16
2022-08-30T04:49:46.686Z,14.14
2022-08-30T04:52:48.507Z,14.11
2022-08-30T04:55:50.147Z,14.13
2022-08-30T04:58:55.694Z,14.13
2022-08-30T05:01:57.383Z,14.14
2022-08-30T05:05:17.787Z,14.12
2022-08-30T05:08:24.637Z,14.15
2022-08-30T05:11:27.117Z,14.13
2022-08-30T05:14:28.788Z,14.14
2022-08-30T05:17:30.410Z,14.16
2022-08-30T05:20:32.031Z,14.20
2022-08-30T05:23:33.695Z,14.21
2022-08-30T05:26:38.527Z,14.26
2022-08-30T05:29:40.183Z,14.31
2022-08-30T05:32:42.182Z,14.36
2022-08-30T05:35:43.809Z,14.37
2022-08-30T05:38:45.836Z,14.44
2022-08-30T05:41:47.619Z,14.49
2022-08-30T05:44:53.726Z,14.55
2022-08-30T05:47:55.902Z,14.62
2022-08-30T05:51:14.687Z,14.69
2022-08-30T05:54:16.893Z,14.75
2022-08-30T05:57:18.763Z,14.80
2022-08-30T06:00:20.682Z,14.92
2022-08-30T06:03:22.433Z,15.00
2022-08-30T06:06:24.605Z,15.07
2022-08-30T06:09:26.443Z,15.15
2022-08-30T06:12:28.293Z,15.18
2022-08-30T06:15:30.031Z,15.24
2022-08-30T06:18:31.763Z,15.30
2022-08-30T06:21:36.182Z,15.36
2022-08-30T06:24:56.382Z,15.44
2022-08-30T06:27:58.888Z,15.51
2022-08-30T06:31:00.640Z,15.58
2022-08-30T06:34:02.477Z,15.63
2022-08-30T06:37:04.164Z,15.73
2022-08-30T06:40:06.619Z,15.83
2022-08-30T06:43:08.678Z,15.91
2022-08-30T06:46:14.879Z,16.01
2022-08-30T06:49:17.201Z,16.12
2022-08-30T06:52:19.240Z,16.20
2022-08-30T06:55:21.268Z,16.27
2022-08-30T06:58:23.639Z,16.34
2022-08-30T07:01:28.021Z,16.40
2022-08-30T07:04:29.932Z,16.50
2022-08-30T07:07:31.653Z,16.56
2022-08-30T07:10:33.341Z,16.61
2022-08-30T07:13:36.294Z,16.76
2022-08-30T07:16:38.109Z,16.87
2022-08-30T07:19:39.732Z,16.98
2022-08-30T07:22:42.225Z,17.08
2022-08-30T07:25:44.327Z,17.18
2022-08-30T07:28:46.913Z,17.27
2022-08-30T07:31:50.294Z,17.38
2022-08-30T07:34:51.897Z,17.43
2022-08-30T07:37:53.502Z,17.53
2022-08-30T07:40:55.130Z,17.63
2022-08-30T07:43:57.573Z,17.72
2022-08-30T07:46:59.206Z,17.80
2022-08-30T07:50:01.148Z,17.91
2022-08-30T07:53:04.018Z,17.98
2022-08-30T07:56:07.818Z,18.09
2022-08-30T07:59:09.484Z,18.17
2022-08-30T08:02:11.158Z,18.26
2022-08-30T08:05:17.673Z,18.35
2022-08-30T08:08:20.662Z,18.46
2022-08-30T08:11:26.747Z,18.58
2022-08-30T08:14:30.034Z,18.72
2022-08-30T08:17:31.630Z,18.84
2022-08-30T08:20:34.665Z,18.94
2022-08-30T08:23:36.267Z,19.00
2022-08-30T08:26:41.037Z,19.09
2022-08-30T08:29:46.981Z,19.22
2022-08-30T08:32:49.001Z,19.34
2022-08-30T08:35:50.661Z,19.47
2022-08-30T08:38:52.954Z,19.59
2022-08-30T08:42:24.945Z,19.69
2022-08-30T08:45:57.060Z,19.82
2022-08-30T08:49:03.013Z,20.03
2022-08-30T08:52:26.974Z,20.13
2022-08-30T08:55:29.853Z,20.27
2022-08-30T08:58:42.578Z,20.40
2022-08-30T09:01:44.417Z,20.47
2022-08-30T09:04:46.376Z,20.62
2022-08-30T09:07:57.441Z,20.72
2022-08-30T09:11:02.878Z,20.83
2022-08-30T09:14:16.085Z,20.89
2022-08-30T09:17:19.586Z,20.96
2022-08-30T09:20:25.813Z,21.03
2022-08-30T09:23:30.002Z,21.13
2022-08-30T09:26:35.427Z,21.19
2022-08-30T09:29:37.079Z,21.29
2022-08-30T09:32:41.856Z,21.38
2022-08-30T09:35:52.205Z,21.52
2022-08-30T09:39:18.339Z,21.62
2022-08-30T09:42:25.272Z,21.73
2022-08-30T09:45:44.148Z,21.79
2022-08-30T09:48:46.185Z,21.88
2022-08-30T09:52:01.719Z,21.95
2022-08-30T09:55:20.930Z,22.02
2022-08-30T09:58:46.980Z,22.09
2022-08-30T10:02:10.467Z,22.20
2022-08-30T10:05:36.911Z,22.33
2022-08-30T10:08:41.488Z,22.37
2022-08-30T10:11:54.427Z,22.43
2022-08-30T10:15:19.483Z,22.50
2022-08-30T10:18:43.252Z,22.54
2022-08-30T10:22:24.666Z,22.58
2022-08-30T10:25:41.927Z,22.73
2022-08-30T10:28:50.498Z,22.83
2022-08-30T10:32:00.544Z,22.88
2022-08-30T10:35:23.155Z,22.96
2022-08-30T10:38:30.751Z,23.02
2022-08-30T10:41:41.248Z,23.05
2022-08-30T10:44:48.547Z,23.08
2022-08-30T10:48:01.026Z,23.10
2022-08-30T10:51:10.289Z,23.11
2022-08-30T10:54:26.381Z,23.12
2022-08-30T10:57:28.089Z,23.18
2022-08-30T11:00:40.827Z,23.27
2022-08-30T11:03:43.453Z,23.36
2022-08-30T11:07:15.566Z,23.46
2022-08-30T11:10:49.493Z,23.55
2022-08-30T11:13:56.873Z,23.59
2022-08-30T11:17:01.462Z,23.65
2022-08-30T11:20:05.447Z,23.67
2022-08-30T11:23:25.681Z,23.67
2022-08-30T11:26:45.858Z,23.69
2022-08-30T11:29:48.532Z,23.69
2022-08-30T11:33:10.262Z,23.76
2022-08-30T11:36:37.269Z,23.76
2022-08-30T11:39:49.074Z,23.74
2022-08-30T11:42:53.516Z,23.72
2022-08-30T11:46:24.325Z,23.68
2022-08-30T11:49:50.233Z,23.65
2022-08-30T11:53:02.538Z,23.63
2022-08-30T11:56:06.806Z,23.66
2022-08-30T11:59:25.043Z,23.67
2022-08-30T12:02:55.962Z,23.71
2022-08-30T12:06:05.933Z,23.81
2022-08-30T12:09:33.179Z,23.87
2022-08-30T12:12:37.758Z,23.94
2022-08-30T12:16:01.739Z,24.01
2022-08-30T12:19:21.547Z,24.10
2022-08-30T12:22:23.893Z,24.16
2022-08-30T12:25:33.143Z,24.19
2022-08-30T12:28:34.734Z,24.21
2022-08-30T12:31:51.588Z,24.28
2022-08-30T12:34:56.145Z,24.37
2022-08-30T12:38:05.962Z,24.42
2022-08-30T12:41:07.986Z,24.44
2022-08-30T12:44:15.447Z,24.51
2022-08-30T12:47:22.005Z,24.56
2022-08-30T12:50:31.272Z,24.65
2022-08-30T12:53:38.157Z,24.76
2022-08-30T13:00:23.390Z,24.94
2022-08-30T13:03:37.435Z,24.97
2022-08-30T13:06:59.355Z,25.01
2022-08-30T13:10:06.138Z,25.06
2022-08-30T13:13:07.797Z,25.13
2022-08-30T13:16:18.718Z,25.24
2022-08-30T13:19:34.362Z,25.32
2022-08-30T13:22:42.354Z,25.41
2022-08-30T13:25:44.071Z,25.47
2022-08-30T13:28:52.512Z,25.56
2022-08-30T13:31:56.432Z,25.66
2022-08-30T13:34:58.275Z,25.81
2022-08-30T13:38:01.767Z,26.00
2022-08-30T13:41:03.382Z,26.18
2022-08-30T13:44:11.686Z,26.33
2022-08-30T13:50:37.256Z,26.47
2022-08-30T13:53:54.631Z,26.50
2022-08-30T13:56:56.914Z,26.57
2022-08-30T13:59:58.934Z,26.74
2022-08-30T14:03:01.898Z,26.92
2022-08-30T14:06:29.314Z,27.13
2022-08-30T14:09:26.635Z,27.38
2022-08-30T14:16:26.881Z,27.87
2022-08-30T14:19:15.464Z,28.03
2022-08-30T14:22:19.826Z,28.14
2022-08-30T14:25:21.589Z,28.31
2022-08-30T14:28:23.485Z,28.47
2022-08-30T14:31:25.818Z,28.53
2022-08-30T14:34:27.714Z,28.67
2022-08-30T14:37:30.333Z,28.82
2022-08-30T14:40:32.852Z,29.06
2022-08-30T14:43:34.444Z,29.30
2022-08-30T14:46:36.175Z,29.51
2022-08-30T14:49:37.948Z,29.78
2022-08-30T14:52:39.909Z,30.07
2022-08-30T14:55:42.099Z,30.33
2022-08-30T14:58:44.154Z,30.58
2022-08-30T15:01:46.538Z,30.76
2022-08-30T15:04:49.595Z,31.00
2022-08-30T15:07:52.817Z,31.25
2022-08-30T15:10:54.564Z,31.47
2022-08-30T15:13:56.387Z,31.47
2022-08-30T15:16:59.779Z,31.46
2022-08-30T15:20:01.397Z,31.58
2022-08-30T15:23:03.635Z,31.57
2022-08-30T15:26:09.893Z,31.68
2022-08-30T15:29:14.628Z,31.70
2022-08-30T15:32:16.231Z,31.63
2022-08-30T15:35:20.139Z,31.62
2022-08-30T15:38:24.438Z,31.58
2022-08-30T15:41:27.473Z,31.54
2022-08-30T15:44:31.716Z,31.45
2022-08-30T15:47:33.410Z,31.42
2022-08-30T15:50:36.521Z,31.45
2022-08-30T15:53:38.281Z,31.46
2022-08-30T15:56:41.863Z,31.43
2022-08-30T15:59:43.782Z,31.16
2022-08-30T16:02:48.223Z,31.12
2022-08-30T16:05:49.977Z,31.06
2022-08-30T16:08:52.179Z,31.04
2022-08-30T16:11:53.796Z,31.00
2022-08-30T16:14:55.459Z,30.91
2022-08-30T16:17:57.124Z,30.78
2022-08-30T16:21:07.187Z,30.59
2022-08-30T16:24:10.636Z,30.26
2022-08-30T16:27:15.375Z,29.93
2022-08-30T16:30:18.302Z,29.61
2022-08-30T16:33:20.250Z,29.34
2022-08-30T16:36:23.001Z,29.03
2022-08-30T16:39:25.048Z,28.76
2022-08-30T16:42:27.730Z,28.52
2022-08-30T16:45:34.366Z,28.23
2022-08-30T16:48:36.327Z,27.96
2022-08-30T16:51:38.238Z,27.74
2022-08-30T16:54:39.919Z,27.45
2022-08-30T16:57:41.655Z,27.19
2022-08-30T17:00:49.755Z,26.92
2022-08-30T17:03:51.760Z,26.68
2022-08-30T17:06:53.662Z,26.48
2022-08-30T17:09:58.429Z,26.25
2022-08-30T17:13:00.310Z,26.05
2022-08-30T17:16:04.327Z,25.85
2022-08-30T17:19:08.046Z,25.69
2022-08-30T17:22:10.583Z,25.53
2022-08-30T17:25:13.160Z,25.40
2022-08-30T17:28:14.899Z,25.21
2022-08-30T17:31:16.892Z,25.04
2022-08-30T17:34:21.243Z,24.87
2022-08-30T17:37:23.690Z,24.70
2022-08-30T17:40:25.553Z,24.58
2022-08-30T17:43:27.278Z,24.50
2022-08-30T17:46:29.954Z,24.41
2022-08-30T17:49:35.828Z,24.32
2022-08-30T17:52:37.866Z,24.22
2022-08-30T17:55:48.265Z,24.12
2022-08-30T17:58:52.966Z,24.03
2022-08-30T18:01:56.715Z,23.93
2022-08-30T18:05:00.429Z,23.84
2022-08-30T18:08:02.199Z,23.70
2022-08-30T18:11:05.984Z,23.59
2022-08-30T18:14:11.073Z,23.45
2022-08-30T18:17:14.712Z,23.30
2022-08-30T18:20:17.025Z,23.18
2022-08-30T18:23:18.658Z,23.03
2022-08-30T18:26:27.872Z,22.89
2022-08-30T18:29:31.505Z,22.78
2022-08-30T18:32:36.402Z,22.66
2022-08-30T18:35:45.354Z,22.53
2022-08-30T18:38:49.763Z,22.39
2022-08-30T18:41:54.341Z,22.28
2022-08-30T18:44:57.316Z,22.18
2022-08-30T18:48:01.105Z,22.08
2022-08-30T18:51:04.587Z,21.96
2022-08-30T18:54:08.135Z,21.86
2022-08-30T18:57:10.636Z,21.73
2022-08-30T19:00:15.833Z,21.65
2022-08-30T19:03:18.831Z,21.56
2022-08-30T19:06:20.817Z,21.45
2022-08-30T19:09:23.430Z,21.38
2022-08-30T19:12:26.095Z,21.32
2022-08-30T19:15:34.058Z,21.26
2022-08-30T19:18:36.958Z,21.19
2022-08-30T19:21:38.764Z,21.13
2022-08-30T19:24:40.612Z,21.09
2022-08-30T19:27:44.430Z,21.05
2022-08-30T19:30:46.188Z,21.01
2022-08-30T19:33:47.911Z,21.00
2022-08-30T19:36:49.559Z,20.95
2022-08-30T19:39:51.172Z,20.93
2022-08-30T19:42:53.666Z,20.86
2022-08-30T19:45:56.894Z,20.85
2022-08-30T19:49:00.985Z,20.81
2022-08-30T19:52:03.162Z,20.81
2022-08-30T19:55:07.541Z,20.79
2022-08-30T19:58:09.778Z,20.77
2022-08-30T20:01:33.350Z,20.74
2022-08-30T20:04:33.825Z,20.70
2022-08-30T20:07:37.523Z,20.67
2022-08-30T20:10:39.203Z,20.64
2022-08-30T20:13:41.292Z,20.62
2022-08-30T20:16:43.735Z,20.60
2022-08-30T20:19:47.823Z,20.60
2022-08-30T20:22:50.922Z,20.58
2022-08-30T20:25:56.688Z,20.53
2022-08-30T20:28:59.886Z,20.47
2022-08-30T20:32:03.232Z,20.45
2022-08-30T20:35:07.792Z,20.42
2022-08-30T20:38:10.663Z,20.37
2022-08-30T20:41:16.861Z,20.33
2022-08-30T20:44:19.384Z,20.30
2022-08-30T20:47:22.183Z,20.25
2022-08-30T20:50:23.889Z,20.21
2022-08-30T20:53:25.495Z,20.14
2022-08-30T20:56:29.432Z,20.12
2022-08-30T20:59:31.698Z,20.05
2022-08-30T21:02:34.261Z,20.00
2022-08-30T21:05:37.089Z,19.98
2022-08-30T21:08:39.515Z,19.92
2022-08-30T21:11:44.541Z,19.87
2022-08-30T21:14:46.735Z,19.82
2022-08-30T21:17:48.456Z,19.79
2022-08-30T21:20:50.097Z,19.77
2022-08-30T21:23:54.048Z,19.75
2022-08-30T21:26:55.871Z,19.72
2022-08-30T21:29:58.470Z,19.71
2022-08-30T21:33:02.799Z,19.71
2022-08-30T21:36:24.497Z,19.74
2022-08-30T21:39:27.354Z,19.75
2022-08-30T21:42:28.958Z,19.76
2022-08-30T21:45:30.589Z,19.77
2022-08-30T21:48:32.743Z,19.78
2022-08-30T21:51:42.412Z,19.81
2022-08-30T21:54:44.021Z,19.81
2022-08-30T21:57:45.661Z,19.81
2022-08-30T22:00:47.949Z,19.80
2022-08-30T22:03:51.570Z,19.82
2022-08-30T22:06:53.741Z,19.82
2022-08-30T22:09:55.411Z,19.82
2022-08-30T22:12:57.044Z,19.81
2022-08-30T22:15:59.044Z,19.80
2022-08-30T22:19:01.448Z,19.77
2022-08-30T22:22:03.142Z,19.78
2022-08-30T22:25:05.124Z,19.76
2022-08-30T22:28:06.958Z,19.73
2022-08-30T22:31:10.703Z,19.75
2022-08-30T22:34:12.584Z,19.72
2022-08-30T22:37:14.287Z,19.68
2022-08-30T22:40:16.128Z,19.70
2022-08-30T22:43:18.809Z,19.69
2022-08-30T22:46:31.414Z,19.67
2022-08-30T22:49:36.301Z,19.62
2022-08-30T22:52:37.921Z,19.62
2022-08-30T22:55:41.179Z,19.60
2022-08-30T22:58:43.643Z,19.57
2022-08-30T23:01:47.030Z,19.54
2022-08-30T23:04:48.828Z,19.51
2022-08-30T23:07:52.982Z,19.47
2022-08-30T23:10:57.821Z,19.45
2022-08-30T23:13:59.490Z,19.39
2022-08-30T23:17:03.577Z,19.39
2022-08-30T23:20:06.467Z,19.37
2022-08-30T23:23:08.191Z,19.34
2022-08-30T23:26:28.281Z,19.33
2022-08-30T23:29:49.160Z,19.31
2022-08-30T23:33:09.603Z,19.28
2022-08-30T23:36:32.341Z,19.25
2022-08-30T23:39:52.522Z,19.23
2022-08-30T23:43:12.583Z,19.19
2022-08-30T23:46:32.911Z,19.16
2022-08-30T23:49:53.338Z,19.14
2022-08-30T23:53:13.628Z,19.12
2022-08-30T23:56:33.925Z,19.12
2022-08-30T23:59:54.518Z,19.09
